Airfield :







YOU CAN JOIN US ON...

 
LOGIN :

Register | Disclaimer

   EN    FR    IT 

 









Legend :    VFR   Marginal VFR   IFR   Intensive IFR   Very Intensive IFR
Visi :
Ceiling :
>= 8 km
>= 3000ft
5 to 8 km
1000 to 3000 ft
1500m to 5 km
500 to 1000 ft
800 to 1500m
200 to 500 ft
< 800m
< 200 ft
Symbols :   Thunderstorms  Fog  Heavy snow  Heavy precipitations  Wind > 20 kt






- Airport Elevation : 586 ft
- IATA code : YRJ


CYRJ - Roberval

CURRENT METAR :
  • 290600Z 34011G21KT 25SM OVC025 10/05 A2971 RMK SC8 SLP065

EXPIRED METARs :
  • 290500Z 32019G25KT 25SM OVC028 11/06 A2968 RMK SC8 SLP057
  • 290400Z 31017G27KT 25SM OVC028 12/07 A2966 RMK SC8 SLP047
  • 290300Z 32019G25KT 25SM OVC028 12/07 A2964 RMK SC8 SLP040 DENSITY ALT 800FT
  • 290200Z 32013G27KT 20SM OVC026 12/08 A2962 RMK SC8 SLP034 DENSITY ALT 800FT
  • 290148Z 32019G30KT 20SM OVC031 13/08 A2961 RMK SC8 SLP033 DENSITY ALT 800FT

Expired Forecast.
CZUL FIR / North America



MET'MAP, your aeronautical weather chart ! - Copyright ORBIFLY December 2007 - Disclaimer

ORBIFLY MET'MAP TEAM :

Programming & Development : Alexandra Zaïnal
Original concept : Baudouin d'Aumeries
Technical & hardware support : Manuel Goepfert
Assistance : Marc-Olivier Méhu




SOURCES & CREDITS :

   NOAA